Time;durP1;ratioP1;P1;durP2;ratioP2;P2;SDS_P1;SDS_P2;PMS_P1;PMS_P2;Temp;Humidity;BMP_temperature;BMP_pressure;BME280_temperature;BME280_humidity;BME280_pressure;Samples;Min_cycle;Max_cycle;Signal;HPM_P1;HPM_P2
2022/06/29 00:00:50;;;;;;;2.17;1.97;;;;;;;16.53;100.00;101986.88;5061236;28;20217;-72
2022/06/29 00:03:15;;;;;;;2.30;2.10;;;;;;;16.66;100.00;101989.59;5060788;28;20440;-71
2022/06/29 00:05:41;;;;;;;3.07;2.10;;;;;;;16.57;100.00;101993.53;5058712;28;20425;-72
2022/06/29 00:08:07;;;;;;;4.10;1.60;;;;;;;16.21;100.00;101939.84;5059652;28;20225;-72
2022/06/29 00:10:33;;;;;;;3.50;2.40;;;;;;;16.47;100.00;101980.44;5061882;28;20486;-71
2022/06/29 00:12:59;;;;;;;2.93;2.00;;;;;;;16.46;100.00;101986.91;5059258;28;20265;-72
2022/06/29 00:15:24;;;;;;;2.33;2.00;;;;;;;16.50;100.00;101982.72;5059704;28;20955;-72
2022/06/29 00:17:50;;;;;;;3.87;2.43;;;;;;;16.26;100.00;101946.28;5061056;28;20961;-72
2022/06/29 00:20:16;;;;;;;2.30;2.10;;;;;;;16.45;100.00;101982.50;5057339;28;20687;-72
2022/06/29 00:22:43;;;;;;;2.73;2.17;;;;;;;16.39;100.00;101977.09;5061400;28;20187;-73
2022/06/29 00:25:10;;;;;;;3.17;2.00;;;;;;;16.27;100.00;101987.72;5060907;28;20433;-73
2022/06/29 00:27:36;;;;;;;2.30;1.93;;;;;;;16.22;100.00;101965.88;5059213;28;20426;-73
2022/06/29 00:30:02;;;;;;;3.10;2.40;;;;;;;16.21;100.00;101988.56;5057782;28;20510;-72
2022/06/29 00:32:28;;;;;;;2.30;1.83;;;;;;;16.18;100.00;101961.91;5060969;28;20864;-72
2022/06/29 00:34:53;;;;;;;2.00;1.70;;;;;;;15.73;100.00;101889.47;5061517;28;20462;-72
2022/06/29 00:37:19;;;;;;;3.23;2.40;;;;;;;15.69;100.00;101884.69;5059758;28;20266;-72
2022/06/29 00:39:44;;;;;;;2.63;2.00;;;;;;;15.60;100.00;101852.41;5057127;28;20203;-71
2022/06/29 00:42:10;;;;;;;2.50;2.30;;;;;;;16.10;100.00;101943.19;5057316;28;20187;-72
2022/06/29 00:44:35;;;;;;;2.70;1.90;;;;;;;15.69;100.00;101869.28;5062093;28;20171;-72
2022/06/29 00:47:03;;;;;;;2.93;1.87;;;;;;;16.23;100.00;101959.44;5059140;28;20276;-71
2022/06/29 00:49:31;;;;;;;2.90;2.07;;;;;;;16.14;100.00;101945.28;5059701;28;20257;-72
2022/06/29 00:52:24;;;;;;;5.00;2.40;;;;;;;15.87;100.00;101920.06;5057882;28;20445;-72
2022/06/29 00:55:05;;;;;;;2.63;2.17;;;;;;;15.48;100.00;101873.00;5052932;28;20469;-72
2022/06/29 00:57:31;;;;;;;3.43;1.97;;;;;;;15.99;100.00;101956.28;5055213;28;20480;-71
2022/06/29 00:59:58;;;;;;;2.47;1.50;;;;;;;15.69;100.00;101898.22;5061277;28;20493;-72
2022/06/29 01:02:26;;;;;;;2.17;1.80;;;;;;;15.38;100.00;101864.44;5060104;28;20548;-71
2022/06/29 01:04:52;;;;;;;1.93;1.70;;;;;;;15.35;100.00;101864.84;5058356;28;20441;-71
2022/06/29 01:07:22;;;;;;;5.20;1.90;;;;;;;15.87;100.00;101947.13;5060192;28;20463;-71
2022/06/29 01:09:47;;;;;;;3.43;2.10;;;;;;;15.82;100.00;101955.88;5058706;28;20472;-71
2022/06/29 01:12:13;;;;;;;2.20;2.00;;;;;;;15.79;100.00;101941.91;5058258;28;20433;-72
2022/06/29 01:14:43;;;;;;;3.90;1.77;;;;;;;15.76;100.00;101935.03;5058071;28;20721;-71
2022/06/29 01:17:09;;;;;;;2.10;1.90;;;;;;;15.80;100.00;101944.41;5056465;28;20553;-71
2022/06/29 01:19:34;;;;;;;2.67;2.10;;;;;;;15.60;100.00;101914.59;5060318;28;20469;-71
2022/06/29 01:22:10;;;;;;;2.10;2.00;;;;;;;15.69;100.00;101922.56;5057336;28;20960;-71
2022/06/29 01:24:37;;;;;;;2.00;1.90;;;;;;;15.75;100.00;101936.09;5058822;28;20187;-71
2022/06/29 01:27:04;;;;;;;3.67;2.10;;;;;;;15.72;100.00;101922.16;5058882;28;20494;-71
2022/06/29 01:29:30;;;;;;;2.83;1.80;;;;;;;15.74;100.00;101929.03;5058614;28;20457;-71
2022/06/29 01:31:56;;;;;;;3.73;2.00;;;;;;;15.76;100.00;101917.97;5059506;28;20435;-71
2022/06/29 01:34:26;;;;;;;3.10;2.50;;;;;;;15.71;100.00;101923.19;5061779;28;21541;-71
2022/06/29 01:36:52;;;;;;;2.23;1.70;;;;;;;15.29;100.00;101862.97;5059061;28;20438;-71
2022/06/29 01:39:17;;;;;;;6.37;2.20;;;;;;;15.59;100.00;101934.59;5058650;28;20461;-71
2022/06/29 01:41:43;;;;;;;2.43;2.13;;;;;;;15.58;100.00;101918.56;5058603;28;20266;-71
2022/06/29 01:44:09;;;;;;;2.90;2.23;;;;;;;14.94;100.00;101809.06;5059698;28;20194;-71
2022/06/29 01:46:34;;;;;;;5.43;2.60;;;;;;;15.51;100.00;101918.53;5058136;28;20182;-71
2022/06/29 01:49:00;;;;;;;3.17;2.10;;;;;;;15.48;100.00;101918.13;5056642;28;20203;-71
2022/06/29 01:51:25;;;;;;;4.47;2.20;;;;;;;15.16;100.00;101871.91;5059078;28;20205;-70
2022/06/29 01:53:51;;;;;;;2.77;2.30;;;;;;;15.31;100.00;101893.34;5063130;28;20175;-70
2022/06/29 01:56:16;;;;;;;3.27;1.80;;;;;;;15.22;100.00;101890.00;5063262;28;20199;-70
2022/06/29 01:58:42;;;;;;;2.33;2.03;;;;;;;15.16;100.00;101871.91;5065175;28;20269;-70
2022/06/29 02:01:07;;;;;;;2.30;2.00;;;;;;;15.44;100.00;101906.88;5062710;28;20674;-71
2022/06/29 02:03:33;;;;;;;2.40;2.20;;;;;;;15.34;100.00;101911.84;5065732;28;20183;-71
2022/06/29 02:05:58;;;;;;;4.03;2.27;;;;;;;15.14;100.00;101880.19;5063121;28;20183;-71
2022/06/29 02:08:24;;;;;;;2.37;2.17;;;;;;;15.17;100.00;101881.66;5065135;28;20179;-71
2022/06/29 02:10:49;;;;;;;4.60;2.67;;;;;;;15.38;100.00;101903.13;5064082;28;20276;-71
2022/06/29 02:13:15;;;;;;;3.13;2.37;;;;;;;14.95;100.00;101839.59;5063942;28;20211;-71
2022/06/29 02:15:40;;;;;;;4.27;3.00;;;;;;;14.94;100.00;101835.25;5062963;28;20208;-71
2022/06/29 02:18:06;;;;;;;6.33;2.40;;;;;;;15.11;100.00;101877.91;5063459;28;20274;-71
2022/06/29 02:20:31;;;;;;;2.77;2.50;;;;;;;15.12;100.00;101882.25;5065588;28;20717;-71
2022/06/29 02:22:57;;;;;;;3.90;2.50;;;;;;;14.57;100.00;101796.91;5066851;22;20231;-73
2022/06/29 02:25:22;;;;;;;2.67;2.47;;;;;;;15.20;100.00;101902.88;5057343;28;20250;-73
2022/06/29 02:27:48;;;;;;;3.10;2.80;;;;;;;15.23;100.00;101898.94;5058435;28;20179;-73
2022/06/29 02:30:15;;;;;;;3.23;2.40;;;;;;;14.85;100.00;101843.53;5057290;28;20705;-74
2022/06/29 02:35:26;;;;;;;2.83;2.20;;;;;;;15.19;100.00;101889.53;5021866;28;20557;-73
2022/06/29 02:37:52;;;;;;;2.67;2.47;;;;;;;14.79;100.00;101816.50;5022926;28;20507;-73
2022/06/29 02:40:17;;;;;;;2.50;2.30;;;;;;;14.70;100.00;101791.56;5022770;28;20177;-73
2022/06/29 02:42:42;;;;;;;2.57;2.37;;;;;;;14.82;100.00;101824.19;5021612;28;20330;-73
2022/06/29 02:45:08;;;;;;;2.87;2.67;;;;;;;14.80;100.00;101808.19;5021934;28;20195;-73
2022/06/29 02:47:33;;;;;;;2.27;2.17;;;;;;;14.92;100.00;101828.16;5021937;28;20235;-74
2022/06/29 02:49:59;;;;;;;2.57;2.37;;;;;;;14.89;100.00;101835.84;5022134;28;20196;-73
2022/06/29 02:52:24;;;;;;;2.80;2.60;;;;;;;15.19;100.00;101881.44;5019762;28;20251;-73
2022/06/29 02:54:50;;;;;;;3.13;2.57;;;;;;;14.71;100.00;101801.31;5020889;28;20751;-73
2022/06/29 02:57:15;;;;;;;2.40;2.30;;;;;;;14.78;100.00;101845.38;5021234;28;20192;-73
2022/06/29 02:59:40;;;;;;;2.57;2.37;;;;;;;14.97;100.00;101851.88;5020629;28;20176;-74
2022/06/29 03:02:06;;;;;;;3.50;2.47;;;;;;;14.68;100.00;101778.25;5021071;28;20591;-74
2022/06/29 03:04:34;;;;;;;2.67;2.47;;;;;;;14.58;100.00;101769.72;5024585;28;20591;-73
2022/06/29 03:07:00;;;;;;;2.97;2.70;;;;;;;15.18;100.00;101864.41;5021732;28;20673;-72
2022/06/29 03:09:26;;;;;;;3.30;2.80;;;;;;;15.12;100.00;101866.03;5018795;28;20446;-73
2022/06/29 03:11:52;;;;;;;3.90;2.90;;;;;;;15.00;100.00;101853.34;5019613;28;20827;-73
2022/06/29 03:14:17;;;;;;;2.87;2.57;;;;;;;14.68;100.00;101791.75;5022148;28;20439;-72
2022/06/29 03:16:43;;;;;;;2.43;2.33;;;;;;;14.85;100.00;101810.28;5020794;28;20859;-73
2022/06/29 03:19:08;;;;;;;3.13;2.93;;;;;;;15.24;100.00;101846.53;5019181;28;20188;-73
2022/06/29 03:21:33;;;;;;;4.67;3.30;;;;;;;15.00;100.00;101792.03;5023831;28;20215;-72
2022/06/29 03:23:59;;;;;;;3.03;2.83;;;;;;;15.47;100.00;101849.69;5018751;28;20196;-73
2022/06/29 03:26:24;;;;;;;3.67;2.97;;;;;;;15.44;100.00;101841.16;5022875;28;20235;-73
2022/06/29 03:28:53;;;;;;;4.00;3.33;;;;;;;15.00;100.00;101772.28;5021631;28;20189;-74
2022/06/29 03:31:19;;;;;;;3.30;3.00;;;;;;;15.23;100.00;101796.22;5022956;28;20355;-74
2022/06/29 03:33:45;;;;;;;3.60;3.20;;;;;;;15.53;100.00;101834.50;5021402;28;20444;-74
2022/06/29 03:36:11;;;;;;;4.20;3.10;;;;;;;15.14;100.00;101772.09;5019435;28;20467;-73
2022/06/29 03:38:36;;;;;;;3.23;2.90;;;;;;;15.09;100.00;101757.53;5019526;28;20518;-73
2022/06/29 03:41:02;;;;;;;5.13;3.00;;;;;;;15.22;100.00;101805.38;5018402;28;20189;-73
2022/06/29 03:43:28;;;;;;;5.77;2.60;;;;;;;15.02;100.00;101745.91;5019835;28;20281;-74
2022/06/29 03:45:54;;;;;;;3.87;3.10;;;;;;;15.50;100.00;101833.03;5021451;28;20926;-74
2022/06/29 03:48:19;;;;;;;3.37;2.87;;;;;;;15.18;100.00;101759.00;5020409;28;20196;-73
2022/06/29 03:50:44;;;;;;;3.53;2.80;;;;;;;15.41;100.00;101801.84;5016992;28;20188;-73
2022/06/29 03:53:10;;;;;;;3.70;3.07;;;;;;;15.58;100.00;101813.09;5018647;28;20219;-73
2022/06/29 03:55:36;;;;;;;3.07;2.77;;;;;;;15.11;100.00;101723.06;5020984;28;20271;-72
2022/06/29 03:58:01;;;;;;;2.93;2.60;;;;;;;15.08;100.00;101721.59;5022423;28;20196;-72
2022/06/29 04:00:26;;;;;;;3.83;3.13;;;;;;;15.10;100.00;101706.00;5019549;28;20275;-73
2022/06/29 04:02:52;;;;;;;3.17;2.80;;;;;;;15.53;100.00;101772.31;5018375;28;20214;-73
2022/06/29 04:05:17;;;;;;;3.87;3.20;;;;;;;15.80;100.00;101821.84;5019168;28;20637;-73
2022/06/29 04:07:43;;;;;;;4.03;2.83;;;;;;;15.91;100.00;101818.53;5023207;28;20189;-73
2022/06/29 04:10:08;;;;;;;2.90;2.67;;;;;;;15.75;100.00;101772.97;5019158;28;21222;-73
2022/06/29 04:12:36;;;;;;;2.90;2.70;;;;;;;15.94;100.00;101811.81;5020101;28;20219;-73
2022/06/29 04:15:04;;;;;;;3.50;3.30;;;;;;;15.18;100.00;101733.84;5017823;28;20205;-73
2022/06/29 04:17:29;;;;;;;3.47;2.93;;;;;;;15.50;100.00;101743.81;5017138;28;20441;-73
2022/06/29 04:19:55;;;;;;;4.07;3.40;;;;;;;15.99;100.00;101817.44;5018409;28;20970;-73
2022/06/29 04:22:20;;;;;;;4.87;4.30;;;;;;;15.45;100.00;101721.16;5020131;28;20215;-73
2022/06/29 04:24:46;;;;;;;8.23;3.70;;;;;;;15.98;100.00;101796.84;5014206;28;20216;-74
2022/06/29 04:27:12;;;;;;;3.80;3.50;;;;;;;15.76;100.00;101758.38;5018039;28;20998;-74
2022/06/29 04:29:38;;;;;;;3.40;3.20;;;;;;;16.12;100.00;101792.25;5018888;28;20542;-74
2022/06/29 04:32:04;;;;;;;3.20;2.90;;;;;;;16.32;100.00;101820.09;5016110;28;20462;-73
2022/06/29 04:34:30;;;;;;;2.73;2.53;;;;;;;15.69;100.00;101708.91;5018870;28;20211;-74
2022/06/29 04:36:55;;;;;;;2.73;2.53;;;;;;;16.23;100.00;101808.66;5016218;28;21143;-74
2022/06/29 04:39:20;;;;;;;2.70;2.50;;;;;;;16.20;100.00;101782.03;5013800;28;20219;-75
2022/06/29 04:41:47;;;;;;;3.03;2.83;;;;;;;16.13;100.00;101756.00;5015788;28;20307;-74
2022/06/29 04:44:12;;;;;;;4.33;2.90;;;;;;;16.38;100.00;101797.56;5017311;28;20196;-74
2022/06/29 04:46:41;;;;;;;3.00;2.70;;;;;;;16.32;100.00;101782.19;5019200;28;20443;-74
2022/06/29 04:49:07;;;;;;;7.33;2.50;;;;;;;16.42;100.00;101792.56;5021647;28;20280;-74
2022/06/29 04:51:33;;;;;;;3.20;2.90;;;;;;;16.44;100.00;101783.19;5020845;28;20454;-74
2022/06/29 04:53:59;;;;;;;3.67;2.43;;;;;;;16.54;100.00;101788.13;5020918;28;20184;-74
2022/06/29 04:56:30;;;;;;;2.80;2.60;;;;;;;16.42;100.00;101747.34;5019708;28;20904;-73
2022/06/29 04:58:57;;;;;;;2.70;2.50;;;;;;;16.55;100.00;101751.03;5020611;28;20511;-74
2022/06/29 05:01:24;;;;;;;3.33;2.97;;;;;;;16.72;100.00;101771.16;5019738;28;20435;-74
2022/06/29 05:03:51;;;;;;;2.70;2.33;;;;;;;16.08;100.00;101680.03;5020827;28;20841;-74
2022/06/29 05:06:17;;;;;;;2.80;2.60;;;;;;;16.68;100.00;101775.34;5035451;28;20512;-74
2022/06/29 05:08:43;;;;;;;3.07;2.80;;;;;;;16.71;100.00;101777.63;5019671;28;20424;-74
2022/06/29 05:11:08;;;;;;;3.43;2.87;;;;;;;15.95;100.00;101643.06;5019180;28;20433;-74
2022/06/29 05:13:34;;;;;;;3.47;2.70;;;;;;;16.67;100.00;101757.44;5021237;28;20552;-74
2022/06/29 05:15:59;;;;;;;2.83;2.63;;;;;;;16.25;100.00;101676.63;5018554;28;20236;-74
2022/06/29 05:18:26;;;;;;;3.43;3.17;;;;;;;16.46;100.00;101713.41;5021172;28;20192;-73
2022/06/29 05:21:09;;;;;;;2.80;2.60;;;;;;;15.49;100.00;101531.28;5020640;28;20181;-74
2022/06/29 05:23:34;;;;;;;2.90;2.60;;;;;;;15.52;100.00;101541.66;5021907;28;20935;-74
2022/06/29 05:25:59;;;;;;;2.83;2.57;;;;;;;16.67;100.00;101700.56;5018010;28;20433;-74
2022/06/29 05:28:25;;;;;;;3.13;2.80;;;;;;;17.17;100.00;101760.28;5018483;28;20190;-74
2022/06/29 05:30:51;;;;;;;3.00;2.80;;;;;;;16.96;100.00;101728.13;5018157;28;20190;-75
2022/06/29 05:33:17;;;;;;;3.83;2.40;;;;;;;17.24;100.00;101752.94;5016799;28;20651;-75
2022/06/29 05:35:43;;;;;;;3.80;2.83;;;;;;;17.31;100.00;101752.88;5018346;28;20462;-74
2022/06/29 05:38:08;;;;;;;3.23;2.37;;;;;;;17.26;100.00;101725.59;5017367;28;20564;-75
2022/06/29 05:40:34;;;;;;;3.57;2.37;;;;;;;16.65;100.00;101632.22;5017562;28;20891;-74
2022/06/29 05:43:00;;;;;;;4.20;2.67;;;;;;;16.97;100.00;101670.16;5020060;28;20208;-74
2022/06/29 05:45:26;;;;;;;3.07;2.70;;;;;;;17.48;100.00;101745.00;5021286;28;20772;-74
2022/06/29 05:47:53;;;;;;;3.60;2.77;;;;;;;17.33;100.00;101712.81;5019863;28;20657;-74
2022/06/29 05:50:23;;;;;;;4.57;3.10;;;;;;;17.48;100.00;101740.41;5019564;28;20503;-75
2022/06/29 05:52:49;;;;;;;2.40;2.20;;;;;;;17.09;100.00;101662.94;5020594;28;20444;-74
2022/06/29 05:55:14;;;;;;;2.10;2.00;;;;;;;17.41;100.00;101715.22;5019755;28;20458;-74
2022/06/29 05:57:40;;;;;;;2.83;2.33;;;;;;;17.54;100.00;101725.94;5020046;28;20267;-74
2022/06/29 06:00:06;;;;;;;3.93;2.10;;;;;;;17.42;100.00;101691.66;5018093;28;20577;-74
2022/06/29 06:02:32;;;;;;;2.60;2.40;;;;;;;17.18;100.00;101650.78;5018944;28;20644;-74
2022/06/29 06:04:57;;;;;;;2.60;2.40;;;;;;;17.65;100.00;101718.97;5020555;28;20896;-74
2022/06/29 06:07:23;;;;;;;2.80;2.13;;;;;;;17.60;100.00;101700.63;5020332;28;20687;-74
2022/06/29 06:09:48;;;;;;;2.50;2.30;;;;;;;17.95;100.00;101734.53;5020206;28;20706;-74
2022/06/29 06:12:14;;;;;;;2.27;2.07;;;;;;;17.96;100.00;101728.88;5018516;28;20216;-74
2022/06/29 06:14:39;;;;;;;2.20;2.00;;;;;;;17.64;100.00;101682.03;5017424;28;20204;-72
2022/06/29 06:17:04;;;;;;;2.70;1.90;;;;;;;17.43;100.00;101630.94;5021636;28;20188;-73
2022/06/29 06:19:30;;;;;;;4.87;2.30;;;;;;;17.58;100.00;101644.94;5019439;28;20192;-72
2022/06/29 06:21:55;;;;;;;2.90;2.17;;;;;;;17.88;100.00;101684.91;5018608;28;20308;-73
2022/06/29 06:24:21;;;;;;;3.00;2.20;;;;;;;17.82;100.00;101668.50;5018112;28;20216;-72
2022/06/29 06:26:46;;;;;;;2.33;2.13;;;;;;;18.16;100.00;101711.53;5019278;28;20264;-72
2022/06/29 06:29:12;;;;;;;3.83;1.97;;;;;;;18.11;100.00;101723.09;5020215;28;20649;-72
2022/06/29 06:31:37;;;;;;;3.43;2.10;;;;;;;18.11;100.00;101695.06;5019818;28;20212;-72
2022/06/29 06:34:03;;;;;;;2.23;2.03;;;;;;;18.24;100.00;101738.38;5018377;28;20676;-72
2022/06/29 06:36:28;;;;;;;2.10;1.90;;;;;;;17.82;100.00;101629.69;5018447;28;20267;-72
2022/06/29 06:38:54;;;;;;;2.50;2.20;;;;;;;18.22;100.00;101684.28;5020944;28;20653;-71
2022/06/29 06:41:22;;;;;;;2.67;2.10;;;;;;;18.28;100.00;101699.69;5021245;28;20717;-74
2022/06/29 06:43:58;;;;;;;3.13;2.47;;;;;;;18.25;100.00;101700.13;5022271;28;20232;-74
2022/06/29 06:46:25;;;;;;;3.10;2.07;;;;;;;18.04;100.00;101646.31;5025517;28;20785;-74
2022/06/29 06:48:51;;;;;;;3.10;2.57;;;;;;;18.54;100.00;101713.94;5022323;28;20815;-74
2022/06/29 06:51:18;;;;;;;1.90;1.80;;;;;;;18.55;100.00;101690.34;5023881;28;20430;-74
2022/06/29 06:53:44;;;;;;;2.20;1.60;;;;;;;18.66;100.00;101713.97;5022755;28;20420;-74
2022/06/29 06:56:10;;;;;;;2.73;1.80;;;;;;;18.64;100.00;101706.06;5023237;28;20467;-74
2022/06/29 06:58:35;;;;;;;2.13;1.90;;;;;;;18.72;100.00;101713.06;5027630;28;21035;-74
2022/06/29 07:01:04;;;;;;;2.33;1.97;;;;;;;18.81;100.00;101706.25;5021953;28;20192;-74
2022/06/29 07:03:31;;;;;;;2.23;1.90;;;;;;;18.55;100.00;101657.72;5024300;28;20506;-74
2022/06/29 07:06:06;;;;;;;2.70;1.90;;;;;;;18.75;100.00;101685.47;5023311;28;20792;-74
2022/06/29 07:08:33;;;;;;;2.13;1.93;;;;;;;18.90;100.00;101706.75;5023013;28;20784;-74
2022/06/29 07:11:00;;;;;;;2.67;1.70;;;;;;;18.86;100.00;101681.94;5020832;28;20424;-74
2022/06/29 07:13:26;;;;;;;1.70;1.60;;;;;;;18.62;100.00;101645.69;5021748;28;20460;-74
2022/06/29 07:15:51;;;;;;;2.80;2.00;;;;;;;18.38;100.00;101576.06;5021154;28;20833;-74
2022/06/29 07:18:16;;;;;;;3.83;1.73;;;;;;;18.60;100.00;101601.63;5020671;28;20427;-73
2022/06/29 07:20:42;;;;;;;2.00;1.80;;;;;;;19.12;100.00;101677.97;5022207;28;20252;-74
2022/06/29 07:23:07;;;;;;;2.17;1.40;;;;;;;18.53;100.00;101562.88;5023530;28;20254;-73
2022/06/29 07:25:33;;;;;;;2.37;1.37;;;;;;;19.31;100.00;101684.09;5036454;28;20723;-74
2022/06/29 07:27:58;;;;;;;1.67;1.50;;;;;;;18.61;100.00;101554.38;5022324;28;20259;-73
2022/06/29 07:30:24;;;;;;;1.70;1.60;;;;;;;18.98;100.00;101597.69;5023053;28;20239;-74
2022/06/29 07:32:49;;;;;;;2.07;1.67;;;;;;;19.04;100.00;101602.16;5022394;28;20287;-74
2022/06/29 07:35:14;;;;;;;1.90;1.80;;;;;;;19.27;100.00;101635.88;5022097;28;20617;-74
2022/06/29 07:37:42;;;;;;;3.67;1.80;;;;;;;18.73;100.00;101560.66;5024047;28;20180;-74
2022/06/29 07:40:08;;;;;;;1.57;1.40;;;;;;;18.58;100.00;101510.56;5021982;28;20211;-74
2022/06/29 07:42:35;;;;;;;1.50;1.40;;;;;;;19.60;100.00;101671.41;5021411;28;20479;-74
2022/06/29 07:45:04;;;;;;;2.07;1.60;;;;;;;19.20;100.00;101601.44;5022107;28;20463;-73
2022/06/29 07:47:29;;;;;;;1.87;1.63;;;;;;;19.39;100.00;101626.63;5021827;28;20442;-74
2022/06/29 07:49:55;;;;;;;1.53;1.43;;;;;;;19.56;100.00;101653.94;5020085;28;20758;-74
2022/06/29 07:52:20;;;;;;;1.43;1.33;;;;;;;19.82;100.00;101655.31;5020174;28;20271;-74
2022/06/29 07:54:46;;;;;;;1.90;1.60;;;;;;;19.54;100.00;101626.13;5021760;28;20184;-74
2022/06/29 07:57:11;;;;;;;1.60;1.50;;;;;;;19.90;100.00;101658.72;5024660;28;20216;-74
2022/06/29 07:59:37;;;;;;;2.33;1.50;;;;;;;19.76;100.00;101610.03;5022541;28;20769;-74
2022/06/29 08:02:03;;;;;;;3.17;2.10;;;;;;;19.35;100.00;101546.56;5022053;28;20208;-74
2022/06/29 08:04:28;;;;;;;2.07;1.50;;;;;;;19.28;100.00;101515.13;5020920;28;20184;-74
2022/06/29 08:06:53;;;;;;;1.97;1.60;;;;;;;19.59;100.00;101571.81;5022439;28;20192;-74
2022/06/29 08:09:19;;;;;;;1.70;1.60;;;;;;;20.17;100.00;101642.66;5019654;28;20188;-74
2022/06/29 08:11:45;;;;;;;1.43;1.33;;;;;;;19.59;100.00;101541.88;5022636;28;20236;-74
2022/06/29 08:14:10;;;;;;;1.73;1.40;;;;;;;19.98;100.00;101606.63;5024701;28;20607;-74
2022/06/29 08:16:36;;;;;;;2.80;1.87;;;;;;;20.26;100.00;101641.19;5020176;28;20201;-74
2022/06/29 08:19:01;;;;;;;2.60;1.20;;;;;;;20.15;100.00;101612.13;5021967;28;20187;-74
2022/06/29 08:21:26;;;;;;;1.67;1.40;;;;;;;20.46;100.00;101657.09;5020118;28;20180;-74
2022/06/29 08:23:52;;;;;;;2.50;1.60;;;;;;;20.51;100.00;101647.13;5022078;28;20729;-74
2022/06/29 08:26:17;;;;;;;1.80;1.70;;;;;;;20.19;100.00;101578.72;5020053;28;20193;-74
2022/06/29 08:28:42;;;;;;;2.67;1.47;;;;;;;20.51;100.00;101643.53;5049074;22;20222;-73
2022/06/29 08:31:08;;;;;;;3.57;1.73;;;;;;;20.46;100.00;101635.31;5074424;28;20550;-73
2022/06/29 08:33:33;;;;;;;1.40;1.30;;;;;;;20.41;100.00;101616.13;5076692;28;20650;-73
2022/06/29 08:35:59;;;;;;;2.10;1.17;;;;;;;20.55;100.00;101617.50;5079262;28;20206;-73
2022/06/29 08:38:24;;;;;;;1.63;1.43;;;;;;;20.87;100.00;101630.56;5077359;28;20213;-73
2022/06/29 08:40:49;;;;;;;1.30;1.20;;;;;;;20.73;100.00;101638.22;5077409;28;20186;-73
2022/06/29 08:43:17;;;;;;;1.90;1.37;;;;;;;20.45;100.00;101566.34;5077544;28;20690;-72
2022/06/29 08:45:45;;;;;;;2.70;1.77;;;;;;;20.91;100.00;101624.34;5078437;28;20186;-72
2022/06/29 08:48:15;;;;;;;1.53;1.37;;;;;;;21.01;100.00;101620.16;5074292;28;20473;-73
2022/06/29 08:50:43;;;;;;;2.00;1.30;;;;;;;21.05;100.00;101622.09;5074606;28;20522;-73
2022/06/29 08:53:12;;;;;;;2.20;1.63;;;;;;;21.18;100.00;101627.22;5071187;28;20478;-74
2022/06/29 08:55:42;;;;;;;1.83;1.30;;;;;;;21.16;100.00;101610.28;5075008;28;20557;-73
2022/06/29 08:58:13;;;;;;;1.73;1.40;;;;;;;21.21;100.00;101613.09;5073911;28;20438;-73
2022/06/29 09:00:39;;;;;;;1.73;1.30;;;;;;;21.00;100.00;101578.38;5074757;28;20413;-73
2022/06/29 09:03:05;;;;;;;1.20;1.10;;;;;;;21.34;100.00;101611.88;5073454;28;20428;-73
2022/06/29 09:05:31;;;;;;;1.10;1.00;;;;;;;21.33;100.00;101607.50;5073200;28;20179;-73
2022/06/29 09:07:57;;;;;;;1.53;1.43;;;;;;;21.41;100.00;101601.66;5072592;28;20997;-72
2022/06/29 09:10:24;;;;;;;2.13;1.20;;;;;;;21.49;100.00;101605.00;5077284;28;20497;-73
2022/06/29 09:12:52;;;;;;;2.40;1.60;;;;;;;21.22;100.00;101568.34;5075870;28;20190;-72
2022/06/29 09:15:30;;;;;;;2.00;1.10;;;;;;;21.49;100.00;101596.81;5075179;28;20471;-73
2022/06/29 09:17:55;;;;;;;1.20;1.10;;;;;;;21.44;100.00;101587.50;5076004;28;20416;-74
2022/06/29 09:20:20;;;;;;;1.40;1.30;;;;;;;21.53;100.00;101589.78;5063923;28;20440;-73
2022/06/29 09:22:54;;;;;;;1.20;1.10;;;;;;;21.66;100.00;101590.22;5074094;28;20190;-74
2022/06/29 09:25:28;;;;;;;1.43;1.10;;;;;;;21.84;100.00;101580.88;5075047;28;20179;-74
2022/06/29 09:27:55;;;;;;;2.00;1.10;;;;;;;21.82;100.00;101590.41;5075865;28;20512;-73
2022/06/29 09:30:35;;;;;;;1.33;1.10;;;;;;;21.73;100.00;101568.19;5076257;28;20511;-73
2022/06/29 09:33:04;;;;;;;2.17;1.50;;;;;;;21.98;100.00;101581.28;5075590;28;20421;-73
2022/06/29 09:35:32;;;;;;;1.77;1.17;;;;;;;22.05;100.00;101575.63;5074408;28;20511;-74
2022/06/29 09:38:23;;;;;;;1.43;1.17;;;;;;;22.09;100.00;101582.22;5075853;28;20915;-73
2022/06/29 09:41:08;;;;;;;1.60;1.30;;;;;;;22.12;100.00;101581.72;5076457;28;20410;-74
2022/06/29 09:43:47;;;;;;;1.23;1.00;;;;;;;22.10;100.00;101573.78;5061776;28;20507;-74
2022/06/29 09:46:15;;;;;;;2.07;1.00;;;;;;;22.28;100.00;101558.94;5077035;28;20924;-74
2022/06/29 09:48:42;;;;;;;1.17;1.07;;;;;;;22.43;100.00;101579.31;5075077;28;20457;-74
2022/06/29 09:54:06;;;;;;;1.47;1.20;;;;;;;22.42;100.00;101575.75;5076340;28;20445;-74
2022/06/29 09:56:32;;;;;;;1.73;1.23;;;;;;;22.46;100.00;101570.59;5073986;28;20828;-73
2022/06/29 09:59:04;;;;;;;2.90;1.63;;;;;;;22.45;100.00;101571.66;5073967;28;20976;-74
2022/06/29 10:04:15;;;;;;;1.40;1.10;;;;;;;22.23;100.00;101550.69;5077739;28;20411;-75
2022/06/29 10:06:42;;;;;;;1.07;1.00;;;;;;;22.07;100.00;101514.22;5073532;28;20420;-74
2022/06/29 10:09:07;;;;;;;1.47;1.03;;;;;;;22.51;100.00;101565.97;5076109;28;20436;-74
2022/06/29 10:14:41;;;;;;;1.60;1.30;;;;;;;22.56;100.00;101567.91;5077935;28;20215;-74
2022/06/29 10:17:44;;;;;;;1.57;1.10;;;;;;;22.76;100.00;101565.31;5079090;28;20508;-75
2022/06/29 10:20:47;;;;;;;1.47;1.00;;;;;;;22.88;100.00;101562.41;5078451;28;20207;-73
2022/06/29 10:23:48;;;;;;;1.40;1.10;;;;;;;22.97;100.00;101568.22;5079564;28;20503;-73
2022/06/29 10:26:35;;;;;;;1.33;1.23;;;;;;;22.82;100.00;101551.69;5078291;28;20415;-74
2022/06/29 10:29:09;;;;;;;1.30;1.10;;;;;;;23.05;100.00;101554.06;5078476;28;20463;-74
2022/06/29 10:31:49;;;;;;;1.93;0.90;;;;;;;23.06;100.00;101557.63;5076544;28;20909;-73
2022/06/29 10:34:30;;;;;;;1.57;1.33;;;;;;;23.11;100.00;101555.72;5077745;28;20417;-73
2022/06/29 10:37:11;;;;;;;1.40;1.30;;;;;;;23.13;100.00;101545.34;5079765;28;20549;-73
2022/06/29 10:39:45;;;;;;;2.03;1.20;;;;;;;23.42;100.00;101543.00;5076198;28;20468;-73
2022/06/29 10:45:20;;;;;;;1.70;1.20;;;;;;;23.09;100.00;101538.78;5079237;28;20435;-73
2022/06/29 10:47:55;;;;;;;0.90;0.90;;;;;;;23.22;100.00;101535.53;5078135;28;20423;-72
2022/06/29 10:50:24;;;;;;;1.40;1.30;;;;;;;23.39;100.00;101535.34;5080844;28;20417;-73
2022/06/29 10:52:51;;;;;;;1.17;1.03;;;;;;;23.33;100.00;101535.59;5075937;28;20444;-73
2022/06/29 10:55:18;;;;;;;1.63;1.30;;;;;;;23.18;100.00;101539.91;5079797;28;20522;-73
2022/06/29 10:57:45;;;;;;;1.80;1.67;;;;;;;23.27;100.00;101484.66;5063634;28;20517;-73
2022/06/29 11:00:16;;;;;;;1.23;1.13;;;;;;;23.71;100.00;101531.63;5079683;28;20417;-72
2022/06/29 11:02:43;;;;;;;2.83;1.13;;;;;;;23.69;100.00;101512.72;5077139;28;20428;-73
2022/06/29 11:05:09;;;;;;;1.97;1.20;;;;;;;23.78;100.00;101523.16;5076428;28;20446;-72
2022/06/29 11:13:03;;;;;;;1.50;1.20;;;;;;;24.11;100.00;101499.91;5078949;28;21038;-73
2022/06/29 11:15:42;;;;;;;2.53;1.17;;;;;;;23.95;100.00;101479.91;5073384;28;20461;-73
2022/06/29 11:18:16;;;;;;;1.77;1.43;;;;;;;24.39;100.00;101497.69;5075423;28;20542;-72
2022/06/29 11:20:48;;;;;;;1.30;1.20;;;;;;;24.14;100.00;101450.03;5075300;28;20437;-73
2022/06/29 11:23:16;;;;;;;1.77;1.67;;;;;;;24.32;100.00;101493.31;5077515;28;20463;-73
2022/06/29 11:25:46;;;;;;;1.53;1.07;;;;;;;24.33;100.00;101505.13;5075366;28;20904;-73
2022/06/29 11:28:13;;;;;;;1.67;1.00;;;;;;;24.62;100.00;101497.19;5077108;28;20454;-72
2022/06/29 11:30:39;;;;;;;0.90;0.90;;;;;;;24.58;100.00;101501.56;5077382;28;20428;-72
2022/06/29 11:33:10;;;;;;;2.93;1.30;;;;;;;24.46;100.00;101451.69;5078254;28;20455;-72
2022/06/29 11:35:37;;;;;;;1.47;1.30;;;;;;;24.38;100.00;101402.84;5076542;28;20205;-72
2022/06/29 11:38:05;;;;;;;1.37;1.27;;;;;;;24.56;100.00;101437.94;5077091;28;20968;-73